Terminal Aerodrome Forecast
Issued by NWS

Home | Current Version | Previous Version | Text Only | Print | Product List | Glossary Off
Versions: 1 2 3 4 5 6 7 8 9 10 11 12 13 14 15

148
FTUS43 KMPX 261125
TAFRWF
TAF
KRWF 261125Z 2612/2712 23007KT P6SM SCT040 BKN070
     FM261400 26010KT P6SM BKN070
     FM261600 29012G18KT P6SM SCT050 SCT250
     FM270200 17004KT P6SM BKN120=

USA.gov is the U.S. government's official web portal to all federal, state and local government web resources and services.